sensor_id;sensor_type;location;lat;lon;timestamp;P1;durP1;ratioP1;P2;durP2;ratioP2
10465;SDS011;5280;42.600;23.556;2022-07-29T00:01:16;11.30;;;8.77;;
10465;SDS011;5280;42.600;23.556;2022-07-29T00:03:43;10.00;;;9.10;;
10465;SDS011;5280;42.600;23.556;2022-07-29T00:06:10;9.77;;;8.97;;
10465;SDS011;5280;42.600;23.556;2022-07-29T00:08:39;10.53;;;9.33;;
10465;SDS011;5280;42.600;23.556;2022-07-29T00:11:07;9.87;;;8.93;;
10465;SDS011;5280;42.600;23.556;2022-07-29T00:13:42;9.20;;;8.47;;
10465;SDS011;5280;42.600;23.556;2022-07-29T00:16:10;11.90;;;8.87;;
10465;SDS011;5280;42.600;23.556;2022-07-29T00:18:36;9.50;;;8.47;;
10465;SDS011;5280;42.600;23.556;2022-07-29T00:21:04;9.23;;;8.27;;
10465;SDS011;5280;42.600;23.556;2022-07-29T00:23:31;11.00;;;9.07;;
10465;SDS011;5280;42.600;23.556;2022-07-29T00:25:58;10.17;;;9.13;;
10465;SDS011;5280;42.600;23.556;2022-07-29T00:28:25;9.87;;;8.87;;
10465;SDS011;5280;42.600;23.556;2022-07-29T00:30:54;10.33;;;9.33;;
10465;SDS011;5280;42.600;23.556;2022-07-29T00:33:28;9.60;;;8.70;;
10465;SDS011;5280;42.600;23.556;2022-07-29T00:35:55;9.90;;;9.13;;
10465;SDS011;5280;42.600;23.556;2022-07-29T00:38:21;9.53;;;8.63;;
10465;SDS011;5280;42.600;23.556;2022-07-29T00:40:48;9.90;;;9.10;;
10465;SDS011;5280;42.600;23.556;2022-07-29T00:43:16;10.10;;;9.30;;
10465;SDS011;5280;42.600;23.556;2022-07-29T00:45:44;10.27;;;9.47;;
10465;SDS011;5280;42.600;23.556;2022-07-29T00:48:12;10.90;;;9.80;;
10465;SDS011;5280;42.600;23.556;2022-07-29T00:50:39;9.77;;;8.87;;
10465;SDS011;5280;42.600;23.556;2022-07-29T00:53:09;9.90;;;9.10;;
10465;SDS011;5280;42.600;23.556;2022-07-29T00:55:41;9.17;;;8.33;;
10465;SDS011;5280;42.600;23.556;2022-07-29T00:58:08;8.93;;;8.03;;
10465;SDS011;5280;42.600;23.556;2022-07-29T01:00:38;7.73;;;7.13;;
10465;SDS011;5280;42.600;23.556;2022-07-29T01:03:05;8.67;;;7.80;;
10465;SDS011;5280;42.600;23.556;2022-07-29T01:05:35;7.17;;;6.47;;
10465;SDS011;5280;42.600;23.556;2022-07-29T01:08:03;9.00;;;7.13;;
10465;SDS011;5280;42.600;23.556;2022-07-29T01:10:31;7.60;;;6.90;;
10465;SDS011;5280;42.600;23.556;2022-07-29T01:12:59;7.70;;;6.87;;
10465;SDS011;5280;42.600;23.556;2022-07-29T01:15:28;6.93;;;6.43;;
10465;SDS011;5280;42.600;23.556;2022-07-29T01:17:58;6.20;;;5.70;;
10465;SDS011;5280;42.600;23.556;2022-07-29T01:20:39;6.77;;;5.83;;
10465;SDS011;5280;42.600;23.556;2022-07-29T01:29:11;6.07;;;4.97;;
10465;SDS011;5280;42.600;23.556;2022-07-29T01:31:45;5.67;;;5.27;;
10465;SDS011;5280;42.600;23.556;2022-07-29T01:34:18;5.40;;;4.97;;
10465;SDS011;5280;42.600;23.556;2022-07-29T01:36:50;8.57;;;5.53;;
10465;SDS011;5280;42.600;23.556;2022-07-29T01:39:23;5.73;;;5.33;;
10465;SDS011;5280;42.600;23.556;2022-07-29T01:41:56;6.37;;;5.70;;
10465;SDS011;5280;42.600;23.556;2022-07-29T01:44:31;5.73;;;5.23;;
10465;SDS011;5280;42.600;23.556;2022-07-29T01:47:05;6.83;;;5.40;;
10465;SDS011;5280;42.600;23.556;2022-07-29T01:49:39;4.90;;;4.40;;
10465;SDS011;5280;42.600;23.556;2022-07-29T01:52:11;6.50;;;4.90;;
10465;SDS011;5280;42.600;23.556;2022-07-29T01:54:43;5.37;;;4.73;;
10465;SDS011;5280;42.600;23.556;2022-07-29T01:57:15;5.27;;;4.80;;
10465;SDS011;5280;42.600;23.556;2022-07-29T01:59:48;4.80;;;4.40;;
10465;SDS011;5280;42.600;23.556;2022-07-29T02:02:24;5.07;;;4.57;;
10465;SDS011;5280;42.600;23.556;2022-07-29T02:04:52;4.47;;;3.97;;
10465;SDS011;5280;42.600;23.556;2022-07-29T02:07:21;4.20;;;3.90;;
10465;SDS011;5280;42.600;23.556;2022-07-29T02:09:52;4.00;;;3.70;;
10465;SDS011;5280;42.600;23.556;2022-07-29T02:12:21;5.20;;;4.07;;
10465;SDS011;5280;42.600;23.556;2022-07-29T02:14:54;4.63;;;4.07;;
10465;SDS011;5280;42.600;23.556;2022-07-29T02:17:25;4.67;;;4.20;;
10465;SDS011;5280;42.600;23.556;2022-07-29T02:19:56;4.47;;;4.13;;
10465;SDS011;5280;42.600;23.556;2022-07-29T02:22:25;4.90;;;4.50;;
10465;SDS011;5280;42.600;23.556;2022-07-29T02:24:56;4.77;;;4.33;;
10465;SDS011;5280;42.600;23.556;2022-07-29T02:27:24;4.73;;;3.97;;
10465;SDS011;5280;42.600;23.556;2022-07-29T02:29:56;4.37;;;4.07;;
10465;SDS011;5280;42.600;23.556;2022-07-29T02:32:26;5.90;;;4.10;;
10465;SDS011;5280;42.600;23.556;2022-07-29T02:34:55;4.40;;;4.00;;
10465;SDS011;5280;42.600;23.556;2022-07-29T02:37:24;4.87;;;3.67;;
10465;SDS011;5280;42.600;23.556;2022-07-29T02:39:53;4.87;;;3.77;;
10465;SDS011;5280;42.600;23.556;2022-07-29T02:42:21;4.37;;;3.97;;
10465;SDS011;5280;42.600;23.556;2022-07-29T02:44:49;4.60;;;4.17;;
10465;SDS011;5280;42.600;23.556;2022-07-29T02:47:20;3.93;;;3.60;;
10465;SDS011;5280;42.600;23.556;2022-07-29T02:49:53;7.03;;;3.87;;
10465;SDS011;5280;42.600;23.556;2022-07-29T02:52:24;4.43;;;3.80;;
10465;SDS011;5280;42.600;23.556;2022-07-29T02:54:55;3.67;;;3.47;;
10465;SDS011;5280;42.600;23.556;2022-07-29T02:57:28;3.83;;;3.37;;
10465;SDS011;5280;42.600;23.556;2022-07-29T03:00:01;4.13;;;3.13;;
10465;SDS011;5280;42.600;23.556;2022-07-29T03:02:34;3.63;;;3.30;;
10465;SDS011;5280;42.600;23.556;2022-07-29T03:05:05;3.40;;;3.20;;
10465;SDS011;5280;42.600;23.556;2022-07-29T03:07:35;4.57;;;3.80;;
10465;SDS011;5280;42.600;23.556;2022-07-29T03:10:05;3.80;;;3.50;;
10465;SDS011;5280;42.600;23.556;2022-07-29T03:12:33;3.60;;;3.30;;
10465;SDS011;5280;42.600;23.556;2022-07-29T03:15:02;3.70;;;3.13;;
10465;SDS011;5280;42.600;23.556;2022-07-29T03:17:30;3.90;;;3.60;;
10465;SDS011;5280;42.600;23.556;2022-07-29T03:20:01;4.10;;;3.67;;
10465;SDS011;5280;42.600;23.556;2022-07-29T03:22:29;3.47;;;3.17;;
10465;SDS011;5280;42.600;23.556;2022-07-29T03:24:58;4.20;;;3.60;;
10465;SDS011;5280;42.600;23.556;2022-07-29T03:27:34;3.80;;;3.50;;
10465;SDS011;5280;42.600;23.556;2022-07-29T03:30:01;4.93;;;3.70;;
10465;SDS011;5280;42.600;23.556;2022-07-29T03:32:28;3.80;;;3.37;;
10465;SDS011;5280;42.600;23.556;2022-07-29T03:34:55;3.43;;;3.20;;
10465;SDS011;5280;42.600;23.556;2022-07-29T03:37:26;4.10;;;3.50;;
10465;SDS011;5280;42.600;23.556;2022-07-29T03:39:55;4.67;;;3.50;;
10465;SDS011;5280;42.600;23.556;2022-07-29T03:42:24;5.80;;;3.80;;
10465;SDS011;5280;42.600;23.556;2022-07-29T03:44:54;4.50;;;3.70;;
10465;SDS011;5280;42.600;23.556;2022-07-29T03:47:24;4.77;;;4.37;;
10465;SDS011;5280;42.600;23.556;2022-07-29T03:49:54;4.60;;;4.20;;
10465;SDS011;5280;42.600;23.556;2022-07-29T03:52:28;4.50;;;3.60;;
10465;SDS011;5280;42.600;23.556;2022-07-29T03:54:58;4.20;;;3.90;;
10465;SDS011;5280;42.600;23.556;2022-07-29T03:57:28;5.93;;;4.03;;
10465;SDS011;5280;42.600;23.556;2022-07-29T03:59:58;5.73;;;3.87;;
10465;SDS011;5280;42.600;23.556;2022-07-29T04:02:26;4.63;;;3.73;;
10465;SDS011;5280;42.600;23.556;2022-07-29T04:04:54;4.03;;;3.73;;
10465;SDS011;5280;42.600;23.556;2022-07-29T04:07:21;4.20;;;3.80;;
10465;SDS011;5280;42.600;23.556;2022-07-29T04:09:50;4.90;;;4.50;;
10465;SDS011;5280;42.600;23.556;2022-07-29T04:12:17;4.50;;;4.10;;
10465;SDS011;5280;42.600;23.556;2022-07-29T04:14:46;5.03;;;4.60;;
10465;SDS011;5280;42.600;23.556;2022-07-29T04:17:18;5.63;;;4.73;;
10465;SDS011;5280;42.600;23.556;2022-07-29T04:19:45;5.20;;;4.73;;
10465;SDS011;5280;42.600;23.556;2022-07-29T04:22:12;4.90;;;4.40;;
10465;SDS011;5280;42.600;23.556;2022-07-29T04:24:39;4.53;;;4.10;;
10465;SDS011;5280;42.600;23.556;2022-07-29T04:27:07;4.70;;;4.30;;
10465;SDS011;5280;42.600;23.556;2022-07-29T04:29:34;4.50;;;4.20;;
10465;SDS011;5280;42.600;23.556;2022-07-29T04:32:01;6.40;;;4.07;;
10465;SDS011;5280;42.600;23.556;2022-07-29T04:34:28;4.83;;;4.33;;
10465;SDS011;5280;42.600;23.556;2022-07-29T04:36:55;8.00;;;4.13;;
10465;SDS011;5280;42.600;23.556;2022-07-29T04:39:22;4.67;;;4.27;;
10465;SDS011;5280;42.600;23.556;2022-07-29T04:41:55;4.90;;;4.50;;
10465;SDS011;5280;42.600;23.556;2022-07-29T04:44:23;4.97;;;4.60;;
10465;SDS011;5280;42.600;23.556;2022-07-29T04:46:51;4.77;;;4.47;;
10465;SDS011;5280;42.600;23.556;2022-07-29T04:49:20;5.73;;;4.90;;
10465;SDS011;5280;42.600;23.556;2022-07-29T04:51:48;5.13;;;4.50;;
10465;SDS011;5280;42.600;23.556;2022-07-29T04:54:15;5.30;;;4.43;;
10465;SDS011;5280;42.600;23.556;2022-07-29T04:56:42;17.53;;;16.07;;
10465;SDS011;5280;42.600;23.556;2022-07-29T04:59:09;5.50;;;4.97;;
10465;SDS011;5280;42.600;23.556;2022-07-29T05:01:37;5.73;;;5.13;;
10465;SDS011;5280;42.600;23.556;2022-07-29T05:04:04;7.03;;;4.80;;
10465;SDS011;5280;42.600;23.556;2022-07-29T05:06:32;6.17;;;5.47;;
10465;SDS011;5280;42.600;23.556;2022-07-29T05:08:58;5.33;;;4.80;;
10465;SDS011;5280;42.600;23.556;2022-07-29T05:11:28;6.00;;;5.40;;
10465;SDS011;5280;42.600;23.556;2022-07-29T05:13:56;5.97;;;5.37;;
10465;SDS011;5280;42.600;23.556;2022-07-29T05:16:22;7.10;;;4.90;;
10465;SDS011;5280;42.600;23.556;2022-07-29T05:18:51;5.63;;;5.13;;
10465;SDS011;5280;42.600;23.556;2022-07-29T05:21:18;4.70;;;4.30;;
10465;SDS011;5280;42.600;23.556;2022-07-29T05:23:45;4.93;;;4.63;;
10465;SDS011;5280;42.600;23.556;2022-07-29T05:26:12;5.07;;;4.67;;
10465;SDS011;5280;42.600;23.556;2022-07-29T05:28:39;5.30;;;4.93;;
10465;SDS011;5280;42.600;23.556;2022-07-29T05:31:07;5.17;;;4.67;;
10465;SDS011;5280;42.600;23.556;2022-07-29T05:33:34;4.67;;;4.37;;
10465;SDS011;5280;42.600;23.556;2022-07-29T05:36:03;4.63;;;4.23;;
10465;SDS011;5280;42.600;23.556;2022-07-29T05:38:36;5.23;;;4.73;;
10465;SDS011;5280;42.600;23.556;2022-07-29T05:41:09;4.77;;;4.37;;
10465;SDS011;5280;42.600;23.556;2022-07-29T05:43:57;5.17;;;4.77;;
10465;SDS011;5280;42.600;23.556;2022-07-29T05:46:44;5.17;;;4.77;;
10465;SDS011;5280;42.600;23.556;2022-07-29T05:49:20;6.40;;;4.53;;
10465;SDS011;5280;42.600;23.556;2022-07-29T05:54:57;5.00;;;4.60;;
10465;SDS011;5280;42.600;23.556;2022-07-29T05:57:30;5.17;;;4.40;;
10465;SDS011;5280;42.600;23.556;2022-07-29T06:00:18;4.90;;;4.57;;
10465;SDS011;5280;42.600;23.556;2022-07-29T06:02:48;4.87;;;4.17;;
10465;SDS011;5280;42.600;23.556;2022-07-29T06:05:20;4.70;;;4.30;;
10465;SDS011;5280;42.600;23.556;2022-07-29T06:07:52;5.00;;;4.40;;
10465;SDS011;5280;42.600;23.556;2022-07-29T06:10:38;5.83;;;4.50;;
10465;SDS011;5280;42.600;23.556;2022-07-29T06:13:16;4.13;;;3.73;;
10465;SDS011;5280;42.600;23.556;2022-07-29T06:15:59;3.73;;;3.53;;
10465;SDS011;5280;42.600;23.556;2022-07-29T06:18:32;4.37;;;3.70;;
10465;SDS011;5280;42.600;23.556;2022-07-29T06:23:49;3.63;;;3.33;;
10465;SDS011;5280;42.600;23.556;2022-07-29T06:26:23;4.80;;;2.80;;
10465;SDS011;5280;42.600;23.556;2022-07-29T06:28:53;4.10;;;3.00;;
10465;SDS011;5280;42.600;23.556;2022-07-29T06:31:24;4.07;;;3.30;;
10465;SDS011;5280;42.600;23.556;2022-07-29T06:33:56;5.13;;;3.00;;
10465;SDS011;5280;42.600;23.556;2022-07-29T06:36:27;4.03;;;3.73;;
10465;SDS011;5280;42.600;23.556;2022-07-29T06:38:56;4.30;;;3.20;;
10465;SDS011;5280;42.600;23.556;2022-07-29T06:41:23;4.60;;;3.23;;
10465;SDS011;5280;42.600;23.556;2022-07-29T06:43:51;3.70;;;3.40;;
10465;SDS011;5280;42.600;23.556;2022-07-29T06:46:18;3.65;;;3.08;;
10465;SDS011;5280;42.600;23.556;2022-07-29T06:48:46;3.43;;;3.20;;
10465;SDS011;5280;42.600;23.556;2022-07-29T06:51:13;3.70;;;3.17;;
10465;SDS011;5280;42.600;23.556;2022-07-29T06:53:41;3.30;;;3.00;;
10465;SDS011;5280;42.600;23.556;2022-07-29T06:56:10;5.57;;;3.37;;
10465;SDS011;5280;42.600;23.556;2022-07-29T06:58:39;3.35;;;2.83;;
10465;SDS011;5280;42.600;23.556;2022-07-29T07:01:09;2.97;;;2.78;;
10465;SDS011;5280;42.600;23.556;2022-07-29T07:03:36;3.47;;;2.33;;
10465;SDS011;5280;42.600;23.556;2022-07-29T07:06:03;2.95;;;2.72;;
10465;SDS011;5280;42.600;23.556;2022-07-29T07:08:30;3.17;;;2.40;;
10465;SDS011;5280;42.600;23.556;2022-07-29T07:11:00;2.90;;;2.70;;
10465;SDS011;5280;42.600;23.556;2022-07-29T07:13:28;2.80;;;2.63;;
10465;SDS011;5280;42.600;23.556;2022-07-29T07:15:59;2.70;;;2.50;;
10465;SDS011;5280;42.600;23.556;2022-07-29T07:18:26;2.88;;;2.55;;
10465;SDS011;5280;42.600;23.556;2022-07-29T07:23:58;2.90;;;2.50;;
10465;SDS011;5280;42.600;23.556;2022-07-29T07:26:26;2.65;;;2.45;;
10465;SDS011;5280;42.600;23.556;2022-07-29T07:28:57;4.03;;;2.50;;
10465;SDS011;5280;42.600;23.556;2022-07-29T07:31:28;4.90;;;2.70;;
10465;SDS011;5280;42.600;23.556;2022-07-29T07:33:55;2.50;;;2.30;;
10465;SDS011;5280;42.600;23.556;2022-07-29T07:36:23;2.72;;;2.38;;
10465;SDS011;5280;42.600;23.556;2022-07-29T07:38:53;2.63;;;2.30;;
10465;SDS011;5280;42.600;23.556;2022-07-29T07:41:27;2.92;;;2.30;;
10465;SDS011;5280;42.600;23.556;2022-07-29T07:44:01;2.22;;;2.13;;
10465;SDS011;5280;42.600;23.556;2022-07-29T07:46:28;3.42;;;2.35;;
10465;SDS011;5280;42.600;23.556;2022-07-29T07:48:55;2.50;;;2.30;;
10465;SDS011;5280;42.600;23.556;2022-07-29T07:51:25;5.20;;;2.50;;
10465;SDS011;5280;42.600;23.556;2022-07-29T07:53:52;2.88;;;2.33;;
10465;SDS011;5280;42.600;23.556;2022-07-29T07:56:19;3.10;;;2.40;;
10465;SDS011;5280;42.600;23.556;2022-07-29T07:58:48;2.63;;;1.88;;
10465;SDS011;5280;42.600;23.556;2022-07-29T08:01:17;2.30;;;2.10;;
10465;SDS011;5280;42.600;23.556;2022-07-29T08:03:47;2.95;;;2.47;;
10465;SDS011;5280;42.600;23.556;2022-07-29T08:06:17;2.35;;;2.15;;
10465;SDS011;5280;42.600;23.556;2022-07-29T08:08:49;2.47;;;2.35;;
10465;SDS011;5280;42.600;23.556;2022-07-29T08:11:22;3.60;;;2.20;;
10465;SDS011;5280;42.600;23.556;2022-07-29T08:13:49;4.43;;;2.53;;
10465;SDS011;5280;42.600;23.556;2022-07-29T08:16:20;2.50;;;2.40;;
10465;SDS011;5280;42.600;23.556;2022-07-29T08:18:47;3.05;;;2.50;;
10465;SDS011;5280;42.600;23.556;2022-07-29T08:21:14;2.50;;;2.40;;
10465;SDS011;5280;42.600;23.556;2022-07-29T08:23:42;7.38;;;2.65;;
10465;SDS011;5280;42.600;23.556;2022-07-29T08:26:14;2.70;;;2.47;;
10465;SDS011;5280;42.600;23.556;2022-07-29T08:28:42;4.40;;;3.00;;
10465;SDS011;5280;42.600;23.556;2022-07-29T08:31:11;3.22;;;2.97;;
10465;SDS011;5280;42.600;23.556;2022-07-29T08:33:40;3.85;;;2.67;;
10465;SDS011;5280;42.600;23.556;2022-07-29T08:36:09;3.90;;;2.80;;
10465;SDS011;5280;42.600;23.556;2022-07-29T08:38:38;3.25;;;2.95;;
10465;SDS011;5280;42.600;23.556;2022-07-29T08:41:07;3.33;;;3.03;;
10465;SDS011;5280;42.600;23.556;2022-07-29T08:43:40;3.17;;;2.90;;
10465;SDS011;5280;42.600;23.556;2022-07-29T08:46:13;5.68;;;2.70;;
10465;SDS011;5280;42.600;23.556;2022-07-29T08:48:42;2.97;;;2.70;;
10465;SDS011;5280;42.600;23.556;2022-07-29T08:51:12;2.35;;;2.15;;
10465;SDS011;5280;42.600;23.556;2022-07-29T08:53:44;2.78;;;2.47;;
10465;SDS011;5280;42.600;23.556;2022-07-29T08:56:21;3.05;;;2.22;;
10465;SDS011;5280;42.600;23.556;2022-07-29T08:58:49;2.40;;;2.20;;
10465;SDS011;5280;42.600;23.556;2022-07-29T09:01:17;4.20;;;2.20;;
10465;SDS011;5280;42.600;23.556;2022-07-29T09:03:51;2.05;;;1.85;;
10465;SDS011;5280;42.600;23.556;2022-07-29T09:06:22;2.20;;;2.10;;
10465;SDS011;5280;42.600;23.556;2022-07-29T09:08:53;2.10;;;2.00;;
10465;SDS011;5280;42.600;23.556;2022-07-29T09:11:21;1.67;;;1.58;;
10465;SDS011;5280;42.600;23.556;2022-07-29T09:13:48;2.10;;;1.90;;
10465;SDS011;5280;42.600;23.556;2022-07-29T09:16:16;1.92;;;1.83;;
10465;SDS011;5280;42.600;23.556;2022-07-29T09:18:43;2.00;;;1.90;;
10465;SDS011;5280;42.600;23.556;2022-07-29T09:21:13;2.10;;;2.00;;
10465;SDS011;5280;42.600;23.556;2022-07-29T09:23:59;4.63;;;2.00;;
10465;SDS011;5280;42.600;23.556;2022-07-29T09:26:27;2.85;;;2.00;;
10465;SDS011;5280;42.600;23.556;2022-07-29T09:28:56;2.05;;;1.95;;
10465;SDS011;5280;42.600;23.556;2022-07-29T09:31:32;2.10;;;2.00;;
10465;SDS011;5280;42.600;23.556;2022-07-29T09:34:03;2.05;;;2.00;;
10465;SDS011;5280;42.600;23.556;2022-07-29T09:36:32;2.30;;;2.20;;
10465;SDS011;5280;42.600;23.556;2022-07-29T09:39:05;2.13;;;1.95;;
10465;SDS011;5280;42.600;23.556;2022-07-29T09:41:43;2.38;;;2.20;;
10465;SDS011;5280;42.600;23.556;2022-07-29T09:44:11;2.15;;;2.03;;
10465;SDS011;5280;42.600;23.556;2022-07-29T09:46:40;2.30;;;2.20;;
10465;SDS011;5280;42.600;23.556;2022-07-29T09:49:20;2.75;;;1.98;;
10465;SDS011;5280;42.600;23.556;2022-07-29T09:51:52;2.30;;;2.10;;
10465;SDS011;5280;42.600;23.556;2022-07-29T09:54:26;2.65;;;2.45;;
10465;SDS011;5280;42.600;23.556;2022-07-29T09:56:54;2.70;;;2.50;;
10465;SDS011;5280;42.600;23.556;2022-07-29T09:59:22;2.30;;;2.20;;
10465;SDS011;5280;42.600;23.556;2022-07-29T10:01:51;2.83;;;2.13;;
10465;SDS011;5280;42.600;23.556;2022-07-29T10:04:19;2.35;;;2.25;;
10465;SDS011;5280;42.600;23.556;2022-07-29T10:06:57;2.38;;;2.17;;
10465;SDS011;5280;42.600;23.556;2022-07-29T10:09:24;2.42;;;2.22;;
10465;SDS011;5280;42.600;23.556;2022-07-29T10:12:07;2.88;;;2.67;;
10465;SDS011;5280;42.600;23.556;2022-07-29T10:14:36;2.40;;;2.30;;
10465;SDS011;5280;42.600;23.556;2022-07-29T10:17:04;3.40;;;2.20;;
10465;SDS011;5280;42.600;23.556;2022-07-29T10:19:32;3.05;;;2.85;;
10465;SDS011;5280;42.600;23.556;2022-07-29T10:22:04;3.35;;;3.10;;
10465;SDS011;5280;42.600;23.556;2022-07-29T10:24:33;2.50;;;2.40;;
10465;SDS011;5280;42.600;23.556;2022-07-29T10:27:01;2.70;;;2.50;;
10465;SDS011;5280;42.600;23.556;2022-07-29T10:29:36;3.58;;;2.90;;
10465;SDS011;5280;42.600;23.556;2022-07-29T10:35:29;3.13;;;2.88;;
10465;SDS011;5280;42.600;23.556;2022-07-29T10:38:25;3.13;;;2.85;;
10465;SDS011;5280;42.600;23.556;2022-07-29T10:41:02;3.63;;;2.97;;
10465;SDS011;5280;42.600;23.556;2022-07-29T10:43:53;2.67;;;2.47;;
10465;SDS011;5280;42.600;23.556;2022-07-29T10:46:23;3.25;;;2.70;;
10465;SDS011;5280;42.600;23.556;2022-07-29T10:51:51;5.35;;;3.00;;
10465;SDS011;5280;42.600;23.556;2022-07-29T10:54:39;4.20;;;2.97;;
10465;SDS011;5280;42.600;23.556;2022-07-29T10:57:13;3.88;;;3.03;;
10465;SDS011;5280;42.600;23.556;2022-07-29T11:02:51;2.80;;;2.70;;
10465;SDS011;5280;42.600;23.556;2022-07-29T11:05:20;3.33;;;3.03;;
10465;SDS011;5280;42.600;23.556;2022-07-29T11:10:50;3.30;;;3.10;;
10465;SDS011;5280;42.600;23.556;2022-07-29T11:16:17;3.10;;;2.90;;
10465;SDS011;5280;42.600;23.556;2022-07-29T11:21:49;3.33;;;2.95;;
10465;SDS011;5280;42.600;23.556;2022-07-29T11:24:18;3.42;;;3.22;;
10465;SDS011;5280;42.600;23.556;2022-07-29T11:29:39;3.47;;;3.28;;
10465;SDS011;5280;42.600;23.556;2022-07-29T11:32:14;3.40;;;3.10;;
10465;SDS011;5280;42.600;23.556;2022-07-29T11:34:43;50.38;;;8.73;;
10465;SDS011;5280;42.600;23.556;2022-07-29T11:37:13;10.07;;;3.80;;
10465;SDS011;5280;42.600;23.556;2022-07-29T11:39:42;3.47;;;3.13;;
10465;SDS011;5280;42.600;23.556;2022-07-29T11:45:17;3.20;;;3.00;;
10465;SDS011;5280;42.600;23.556;2022-07-29T11:47:53;3.13;;;2.83;;
10465;SDS011;5280;42.600;23.556;2022-07-29T11:50:31;3.35;;;3.15;;
10465;SDS011;5280;42.600;23.556;2022-07-29T11:53:01;3.47;;;3.28;;
10465;SDS011;5280;42.600;23.556;2022-07-29T11:55:31;3.38;;;3.08;;
10465;SDS011;5280;42.600;23.556;2022-07-29T11:58:02;3.63;;;3.25;;
10465;SDS011;5280;42.600;23.556;2022-07-29T12:00:30;3.30;;;3.10;;
10465;SDS011;5280;42.600;23.556;2022-07-29T12:02:59;4.07;;;3.53;;
10465;SDS011;5280;42.600;23.556;2022-07-29T12:05:33;3.38;;;3.17;;
10465;SDS011;5280;42.600;23.556;2022-07-29T12:08:06;3.42;;;3.20;;
10465;SDS011;5280;42.600;23.556;2022-07-29T12:10:35;3.40;;;3.10;;
10465;SDS011;5280;42.600;23.556;2022-07-29T12:13:08;3.35;;;3.15;;
10465;SDS011;5280;42.600;23.556;2022-07-29T12:15:38;3.40;;;3.10;;
10465;SDS011;5280;42.600;23.556;2022-07-29T12:18:12;3.42;;;3.20;;
10465;SDS011;5280;42.600;23.556;2022-07-29T12:20:41;3.55;;;3.25;;
10465;SDS011;5280;42.600;23.556;2022-07-29T12:23:09;3.67;;;3.47;;
10465;SDS011;5280;42.600;23.556;2022-07-29T12:25:39;3.60;;;3.30;;
10465;SDS011;5280;42.600;23.556;2022-07-29T12:28:11;3.80;;;3.50;;
10465;SDS011;5280;42.600;23.556;2022-07-29T12:30:44;3.70;;;3.50;;
10465;SDS011;5280;42.600;23.556;2022-07-29T12:33:14;3.90;;;3.53;;
10465;SDS011;5280;42.600;23.556;2022-07-29T12:35:47;3.72;;;3.50;;
10465;SDS011;5280;42.600;23.556;2022-07-29T12:38:16;3.80;;;3.50;;
10465;SDS011;5280;42.600;23.556;2022-07-29T12:40:44;3.20;;;3.00;;
10465;SDS011;5280;42.600;23.556;2022-07-29T12:43:14;3.60;;;3.40;;
10465;SDS011;5280;42.600;23.556;2022-07-29T12:45:43;3.63;;;3.40;;
10465;SDS011;5280;42.600;23.556;2022-07-29T12:48:12;3.60;;;3.40;;
10465;SDS011;5280;42.600;23.556;2022-07-29T12:53:22;3.65;;;3.45;;
10465;SDS011;5280;42.600;23.556;2022-07-29T12:55:51;3.58;;;3.38;;
10465;SDS011;5280;42.600;23.556;2022-07-29T12:58:27;4.35;;;3.60;;
10465;SDS011;5280;42.600;23.556;2022-07-29T13:01:03;3.75;;;3.55;;
10465;SDS011;5280;42.600;23.556;2022-07-29T13:03:44;3.85;;;3.33;;
10465;SDS011;5280;42.600;23.556;2022-07-29T13:06:33;4.03;;;3.70;;
10465;SDS011;5280;42.600;23.556;2022-07-29T13:09:04;4.13;;;3.80;;
10465;SDS011;5280;42.600;23.556;2022-07-29T13:11:37;4.47;;;3.50;;
10465;SDS011;5280;42.600;23.556;2022-07-29T13:14:07;3.95;;;3.65;;
10465;SDS011;5280;42.600;23.556;2022-07-29T13:16:38;6.55;;;4.13;;
10465;SDS011;5280;42.600;23.556;2022-07-29T13:19:34;3.70;;;3.42;;
10465;SDS011;5280;42.600;23.556;2022-07-29T13:22:03;5.18;;;3.80;;
10465;SDS011;5280;42.600;23.556;2022-07-29T13:24:30;6.22;;;3.70;;
10465;SDS011;5280;42.600;23.556;2022-07-29T13:26:57;3.70;;;3.40;;
10465;SDS011;5280;42.600;23.556;2022-07-29T13:29:26;3.72;;;3.53;;
10465;SDS011;5280;42.600;23.556;2022-07-29T13:31:54;3.78;;;3.47;;
10465;SDS011;5280;42.600;23.556;2022-07-29T13:34:21;4.95;;;3.50;;
10465;SDS011;5280;42.600;23.556;2022-07-29T13:36:50;3.90;;;3.60;;
10465;SDS011;5280;42.600;23.556;2022-07-29T13:39:17;3.95;;;3.55;;
10465;SDS011;5280;42.600;23.556;2022-07-29T13:41:47;3.45;;;3.25;;
10465;SDS011;5280;42.600;23.556;2022-07-29T13:44:16;4.03;;;3.50;;
10465;SDS011;5280;42.600;23.556;2022-07-29T13:46:46;3.67;;;3.40;;
10465;SDS011;5280;42.600;23.556;2022-07-29T13:49:12;4.13;;;3.25;;
10465;SDS011;5280;42.600;23.556;2022-07-29T13:51:40;3.80;;;3.60;;
10465;SDS011;5280;42.600;23.556;2022-07-29T13:54:10;4.07;;;3.75;;
10465;SDS011;5280;42.600;23.556;2022-07-29T13:56:37;5.63;;;3.40;;
10465;SDS011;5280;42.600;23.556;2022-07-29T13:59:04;3.42;;;3.15;;
10465;SDS011;5280;42.600;23.556;2022-07-29T14:01:31;3.63;;;3.42;;
10465;SDS011;5280;42.600;23.556;2022-07-29T14:03:59;3.63;;;3.33;;
10465;SDS011;5280;42.600;23.556;2022-07-29T14:06:26;4.25;;;3.92;;
10465;SDS011;5280;42.600;23.556;2022-07-29T14:08:56;4.35;;;3.50;;
10465;SDS011;5280;42.600;23.556;2022-07-29T14:11:23;3.80;;;3.60;;
10465;SDS011;5280;42.600;23.556;2022-07-29T14:13:50;3.72;;;3.53;;
10465;SDS011;5280;42.600;23.556;2022-07-29T14:16:17;3.72;;;3.53;;
10465;SDS011;5280;42.600;23.556;2022-07-29T14:18:44;3.97;;;3.78;;
10465;SDS011;5280;42.600;23.556;2022-07-29T14:21:13;10.65;;;4.05;;
10465;SDS011;5280;42.600;23.556;2022-07-29T14:23:40;4.30;;;3.90;;
10465;SDS011;5280;42.600;23.556;2022-07-29T14:26:09;6.63;;;3.80;;
10465;SDS011;5280;42.600;23.556;2022-07-29T14:28:37;3.58;;;3.38;;
10465;SDS011;5280;42.600;23.556;2022-07-29T14:31:04;3.80;;;3.60;;
10465;SDS011;5280;42.600;23.556;2022-07-29T14:33:31;3.80;;;3.50;;
10465;SDS011;5280;42.600;23.556;2022-07-29T14:35:58;8.20;;;4.30;;
10465;SDS011;5280;42.600;23.556;2022-07-29T14:38:26;3.92;;;3.55;;
10465;SDS011;5280;42.600;23.556;2022-07-29T14:40:53;3.40;;;3.20;;
10465;SDS011;5280;42.600;23.556;2022-07-29T14:43:20;3.60;;;3.40;;
10465;SDS011;5280;42.600;23.556;2022-07-29T14:45:48;3.90;;;3.60;;
10465;SDS011;5280;42.600;23.556;2022-07-29T14:48:15;4.20;;;3.90;;
10465;SDS011;5280;42.600;23.556;2022-07-29T14:50:42;4.20;;;3.90;;
10465;SDS011;5280;42.600;23.556;2022-07-29T14:53:09;4.03;;;3.60;;
10465;SDS011;5280;42.600;23.556;2022-07-29T14:55:39;3.80;;;3.55;;
10465;SDS011;5280;42.600;23.556;2022-07-29T14:58:07;3.95;;;3.60;;
10465;SDS011;5280;42.600;23.556;2022-07-29T15:00:34;4.90;;;3.60;;
10465;SDS011;5280;42.600;23.556;2022-07-29T15:03:02;3.85;;;3.53;;
10465;SDS011;5280;42.600;23.556;2022-07-29T15:05:29;3.67;;;3.30;;
10465;SDS011;5280;42.600;23.556;2022-07-29T15:07:57;3.92;;;3.72;;
10465;SDS011;5280;42.600;23.556;2022-07-29T15:10:24;6.28;;;3.70;;
10465;SDS011;5280;42.600;23.556;2022-07-29T15:12:53;3.97;;;3.53;;
10465;SDS011;5280;42.600;23.556;2022-07-29T15:15:21;5.05;;;3.70;;
10465;SDS011;5280;42.600;23.556;2022-07-29T15:17:48;3.50;;;3.30;;
10465;SDS011;5280;42.600;23.556;2022-07-29T15:20:15;4.05;;;3.67;;
10465;SDS011;5280;42.600;23.556;2022-07-29T15:22:42;4.13;;;3.70;;
10465;SDS011;5280;42.600;23.556;2022-07-29T15:25:09;4.03;;;3.72;;
10465;SDS011;5280;42.600;23.556;2022-07-29T15:27:37;14.30;;;4.13;;
10465;SDS011;5280;42.600;23.556;2022-07-29T15:30:06;6.65;;;3.20;;
10465;SDS011;5280;42.600;23.556;2022-07-29T15:32:36;4.32;;;3.13;;
10465;SDS011;5280;42.600;23.556;2022-07-29T15:35:04;5.45;;;3.53;;
10465;SDS011;5280;42.600;23.556;2022-07-29T15:37:31;4.75;;;3.30;;
10465;SDS011;5280;42.600;23.556;2022-07-29T15:40:00;3.55;;;3.22;;
10465;SDS011;5280;42.600;23.556;2022-07-29T15:42:27;4.28;;;3.63;;
10465;SDS011;5280;42.600;23.556;2022-07-29T15:44:54;5.63;;;3.75;;
10465;SDS011;5280;42.600;23.556;2022-07-29T15:47:23;5.32;;;3.50;;